createdAt,value
2022-11-10T00:01:47.710Z,8.10
2022-11-10T00:04:35.227Z,8.09
2022-11-10T00:07:37.209Z,8.10
2022-11-10T00:10:25.310Z,8.12
2022-11-10T00:13:13.161Z,8.13
2022-11-10T00:16:24.947Z,8.13
2022-11-10T00:19:26.092Z,8.12
2022-11-10T00:22:13.925Z,8.12
2022-11-10T00:25:02.190Z,8.11
2022-11-10T00:27:50.533Z,8.12
2022-11-10T00:30:51.393Z,8.13
2022-11-10T00:33:40.863Z,8.13
2022-11-10T00:36:28.307Z,8.14
2022-11-10T00:39:16.313Z,8.17
2022-11-10T00:42:17.384Z,8.18
2022-11-10T00:45:18.723Z,8.19
2022-11-10T00:48:06.148Z,8.20
2022-11-10T00:50:53.715Z,8.19
2022-11-10T00:53:41.701Z,8.19
2022-11-10T00:56:29.946Z,8.18
2022-11-10T00:59:17.269Z,8.19
2022-11-10T01:02:05.014Z,8.20
2022-11-10T01:04:52.984Z,8.20
2022-11-10T01:07:40.640Z,8.21
2022-11-10T01:10:28.598Z,8.23
2022-11-10T01:13:30.970Z,8.25
2022-11-10T01:16:28.016Z,8.26
2022-11-10T01:19:30.415Z,8.27
2022-11-10T01:22:18.371Z,8.27
2022-11-10T01:25:06.005Z,8.28
2022-11-10T01:27:53.724Z,8.29
2022-11-10T01:30:41.821Z,8.29
2022-11-10T01:33:30.100Z,8.30
2022-11-10T01:36:18.457Z,8.32
2022-11-10T01:39:05.766Z,8.32
2022-11-10T01:41:53.819Z,8.33
2022-11-10T01:45:25.928Z,8.33
2022-11-10T01:48:19.898Z,8.34
2022-11-10T01:51:21.758Z,8.32
2022-11-10T01:54:19.993Z,8.31
2022-11-10T01:57:11.092Z,8.31
2022-11-10T01:59:58.921Z,8.30
2022-11-10T02:03:15.448Z,8.28
2022-11-10T02:06:05.066Z,8.29
2022-11-10T02:08:54.734Z,8.28
2022-11-10T02:11:43.496Z,8.27
2022-11-10T02:14:44.749Z,8.28
2022-11-10T02:17:32.635Z,8.29
2022-11-10T02:20:34.330Z,8.29
2022-11-10T02:23:34.490Z,8.31
2022-11-10T02:26:29.800Z,8.32
2022-11-10T02:29:17.441Z,8.32
2022-11-10T02:32:19.486Z,8.32
2022-11-10T02:35:20.327Z,8.31
2022-11-10T02:38:21.439Z,8.29
2022-11-10T02:41:09.008Z,8.28
2022-11-10T02:43:58.238Z,8.28
2022-11-10T02:46:46.505Z,8.28
2022-11-10T02:49:34.646Z,8.27
2022-11-10T02:52:22.489Z,8.25
2022-11-10T02:55:10.825Z,8.23
2022-11-10T02:57:58.770Z,8.22
2022-11-10T03:00:46.179Z,8.23
2022-11-10T03:03:34.243Z,8.24
2022-11-10T03:06:21.749Z,8.24
2022-11-10T03:09:09.615Z,8.24
2022-11-10T03:11:57.464Z,8.23
2022-11-10T03:14:45.488Z,8.23
2022-11-10T03:17:33.412Z,8.24
2022-11-10T03:20:21.362Z,8.24
2022-11-10T03:23:09.369Z,8.26
2022-11-10T03:26:10.549Z,8.26
2022-11-10T03:28:57.896Z,8.26
2022-11-10T03:31:46.296Z,8.26
2022-11-10T03:34:33.882Z,8.26
2022-11-10T03:37:35.002Z,8.26
2022-11-10T03:40:23.348Z,8.26
2022-11-10T03:43:13.096Z,8.27
2022-11-10T03:46:00.418Z,8.27
2022-11-10T03:48:53.276Z,8.27
2022-11-10T03:51:41.328Z,8.27
2022-11-10T03:54:42.550Z,8.27
2022-11-10T03:57:30.511Z,8.25
2022-11-10T04:00:18.465Z,8.25
2022-11-10T04:03:06.185Z,8.25
2022-11-10T04:06:12.977Z,8.26
2022-11-10T04:09:01.567Z,8.26
2022-11-10T04:12:07.849Z,8.26
2022-11-10T04:15:30.574Z,8.26
2022-11-10T04:18:21.466Z,8.26
2022-11-10T04:21:09.316Z,8.26
2022-11-10T04:23:57.252Z,8.25
2022-11-10T04:26:48.060Z,8.23
2022-11-10T04:29:49.188Z,8.20
2022-11-10T04:32:36.951Z,8.20
2022-11-10T04:35:25.171Z,8.19
2022-11-10T04:38:13.393Z,8.19
2022-11-10T04:41:00.896Z,8.17
2022-11-10T04:43:49.505Z,8.16
2022-11-10T04:46:39.567Z,8.14
2022-11-10T04:49:27.504Z,8.15
2022-11-10T04:52:15.063Z,8.14
2022-11-10T04:55:16.560Z,8.14
2022-11-10T04:58:05.136Z,8.13
2022-11-10T05:00:53.728Z,8.15
2022-11-10T05:03:42.710Z,8.14
2022-11-10T05:06:30.289Z,8.13
2022-11-10T05:09:17.959Z,8.14
2022-11-10T05:12:05.780Z,8.14
2022-11-10T05:14:53.276Z,8.14
2022-11-10T05:17:55.564Z,8.12
2022-11-10T05:20:43.136Z,8.11
2022-11-10T05:23:44.734Z,8.10
2022-11-10T05:26:32.366Z,8.10
2022-11-10T05:29:19.753Z,8.10
2022-11-10T05:32:20.993Z,8.10
2022-11-10T05:35:09.170Z,8.08
2022-11-10T05:37:56.838Z,8.07
2022-11-10T05:40:58.109Z,8.07
2022-11-10T05:43:46.087Z,8.04
2022-11-10T05:46:34.423Z,8.04
2022-11-10T05:49:22.016Z,8.03
2022-11-10T05:52:09.865Z,8.01
2022-11-10T05:54:58.079Z,8.00
2022-11-10T05:57:47.123Z,7.99
2022-11-10T06:00:35.753Z,7.99
2022-11-10T06:03:24.302Z,7.98
2022-11-10T06:06:12.172Z,7.97
2022-11-10T06:09:00.102Z,7.96
2022-11-10T06:11:48.279Z,7.96
2022-11-10T06:14:36.540Z,7.96
2022-11-10T06:17:26.169Z,7.96
2022-11-10T06:20:15.585Z,7.98
2022-11-10T06:23:05.056Z,7.98
2022-11-10T06:25:52.574Z,7.99
2022-11-10T06:28:54.118Z,8.01
2022-11-10T06:31:42.357Z,8.03
2022-11-10T06:34:29.709Z,8.05
2022-11-10T06:37:17.659Z,8.06
2022-11-10T06:40:10.785Z,8.08
2022-11-10T06:42:59.137Z,8.09
2022-11-10T06:45:46.961Z,8.09
2022-11-10T06:48:35.324Z,8.08
2022-11-10T06:51:23.882Z,8.09
2022-11-10T06:54:12.140Z,8.11
2022-11-10T06:56:59.998Z,8.14
2022-11-10T06:59:47.733Z,8.15
2022-11-10T07:02:48.888Z,8.17
2022-11-10T07:05:37.172Z,8.20
2022-11-10T07:08:25.361Z,8.25
2022-11-10T07:11:13.781Z,8.28
2022-11-10T07:14:15.101Z,8.31
2022-11-10T07:17:02.399Z,8.32
2022-11-10T07:19:51.032Z,8.34
2022-11-10T07:22:58.725Z,8.36
2022-11-10T07:25:46.398Z,8.39
2022-11-10T07:28:33.724Z,8.40
2022-11-10T07:31:21.664Z,8.43
2022-11-10T07:34:22.641Z,8.46
2022-11-10T07:37:10.046Z,8.49
2022-11-10T07:39:57.586Z,8.53
2022-11-10T07:42:46.058Z,8.58
2022-11-10T07:45:33.872Z,8.62
2022-11-10T07:48:22.017Z,8.64
2022-11-10T07:51:09.657Z,8.65
2022-11-10T07:54:11.187Z,8.68
2022-11-10T07:56:58.844Z,8.69
2022-11-10T07:59:46.965Z,8.73
2022-11-10T08:02:35.679Z,8.78
2022-11-10T08:05:23.227Z,8.82
2022-11-10T08:08:12.297Z,8.86
2022-11-10T08:11:00.345Z,8.87
2022-11-10T08:13:47.810Z,8.90
2022-11-10T08:16:35.792Z,8.92
2022-11-10T08:19:23.751Z,8.94
2022-11-10T08:22:24.807Z,8.99
2022-11-10T08:25:12.306Z,9.02
2022-11-10T08:28:05.131Z,9.05
2022-11-10T08:30:52.766Z,9.12
2022-11-10T08:33:40.885Z,9.18
2022-11-10T08:36:28.526Z,9.25
2022-11-10T08:39:30.364Z,9.31
2022-11-10T08:42:23.646Z,9.34
2022-11-10T08:45:11.448Z,9.35
2022-11-10T08:48:14.838Z,9.33
2022-11-10T08:51:02.142Z,9.31
2022-11-10T08:53:49.778Z,9.29
2022-11-10T08:56:36.993Z,9.28
2022-11-10T08:59:24.828Z,9.27
2022-11-10T09:02:12.486Z,9.28
2022-11-10T09:05:00.187Z,9.27
2022-11-10T09:07:50.390Z,9.30
2022-11-10T09:10:40.891Z,9.33
2022-11-10T09:13:30.532Z,9.36
2022-11-10T09:16:18.346Z,9.40
2022-11-10T09:19:05.908Z,9.47
2022-11-10T09:21:53.361Z,9.57
2022-11-10T09:24:41.334Z,9.68
2022-11-10T09:27:42.612Z,9.76
2022-11-10T09:30:30.245Z,9.79
2022-11-10T09:33:18.030Z,9.83
2022-11-10T09:36:07.264Z,9.92
2022-11-10T09:38:54.736Z,9.97
2022-11-10T09:41:44.477Z,9.95
2022-11-10T09:44:44.384Z,9.98
2022-11-10T09:47:56.780Z,10.05
2022-11-10T09:50:51.304Z,9.99
2022-11-10T09:53:45.230Z,9.92
2022-11-10T09:56:36.095Z,9.86
2022-11-10T09:59:28.173Z,9.84
2022-11-10T10:02:34.857Z,9.83
2022-11-10T10:05:51.867Z,9.80
2022-11-10T10:08:58.117Z,9.79
2022-11-10T10:12:30.950Z,9.77
2022-11-10T10:15:30.851Z,9.78
2022-11-10T10:18:29.693Z,9.79
2022-11-10T10:21:44.373Z,9.77
2022-11-10T10:24:33.818Z,9.77
2022-11-10T10:27:26.006Z,9.81
2022-11-10T10:30:16.218Z,9.86
2022-11-10T10:33:28.418Z,9.91
2022-11-10T10:39:17.660Z,10.01
2022-11-10T10:42:16.607Z,10.09
2022-11-10T10:45:26.537Z,10.14
2022-11-10T10:48:29.579Z,10.11
2022-11-10T10:51:31.340Z,10.13
2022-11-10T10:54:27.386Z,10.18
2022-11-10T11:01:19.966Z,10.27
2022-11-10T11:04:28.799Z,10.28
2022-11-10T11:07:24.945Z,10.26
2022-11-10T11:10:28.466Z,10.27
2022-11-10T11:13:22.082Z,10.30
2022-11-10T11:16:22.697Z,10.28
2022-11-10T11:19:41.526Z,10.24
2022-11-10T11:22:53.472Z,10.21
2022-11-10T11:25:45.596Z,10.20
2022-11-10T11:28:39.435Z,10.21
2022-11-10T11:31:45.784Z,10.20
2022-11-10T11:34:52.230Z,10.19
2022-11-10T11:38:08.382Z,10.17
2022-11-10T11:41:17.862Z,10.15
2022-11-10T11:44:43.076Z,10.14
2022-11-10T11:48:08.912Z,10.13
2022-11-10T11:51:08.228Z,10.23
2022-11-10T11:54:26.903Z,10.30
2022-11-10T11:57:40.095Z,10.32
2022-11-10T12:00:35.317Z,10.32
2022-11-10T12:03:29.988Z,10.34
2022-11-10T12:06:20.633Z,10.36
2022-11-10T12:09:42.579Z,10.41
2022-11-10T12:13:07.583Z,10.44
2022-11-10T12:16:12.632Z,10.48
2022-11-10T12:19:25.100Z,10.58
2022-11-10T12:22:18.693Z,10.65
2022-11-10T12:25:19.843Z,10.67
2022-11-10T12:28:47.343Z,10.68
2022-11-10T12:31:38.330Z,10.69
2022-11-10T12:34:44.290Z,10.68
2022-11-10T12:37:37.544Z,10.66
2022-11-10T12:40:41.982Z,10.65
2022-11-10T12:43:43.106Z,10.64
2022-11-10T12:46:30.678Z,10.58
2022-11-10T12:49:38.063Z,10.53
2022-11-10T12:52:36.520Z,10.51
2022-11-10T12:55:40.040Z,10.49
2022-11-10T12:58:28.367Z,10.52
2022-11-10T13:01:20.833Z,10.62
2022-11-10T13:04:08.164Z,10.70
2022-11-10T13:07:10.293Z,10.77
2022-11-10T13:10:16.482Z,10.74
2022-11-10T13:13:17.151Z,10.72
2022-11-10T13:16:05.948Z,10.69
2022-11-10T13:18:53.893Z,10.71
2022-11-10T13:21:53.530Z,10.70
2022-11-10T13:24:43.765Z,10.71
2022-11-10T13:27:51.399Z,10.73
2022-11-10T13:30:44.982Z,10.76
2022-11-10T13:33:37.983Z,10.72
2022-11-10T13:36:46.668Z,10.63
2022-11-10T13:39:34.269Z,10.53
2022-11-10T13:42:35.348Z,10.47
2022-11-10T13:45:36.218Z,10.41
2022-11-10T13:48:43.381Z,10.34
2022-11-10T13:51:54.023Z,10.26
2022-11-10T13:54:55.367Z,10.20
2022-11-10T13:57:57.471Z,10.16
2022-11-10T14:00:51.308Z,10.15
2022-11-10T14:03:48.241Z,10.20
2022-11-10T14:06:55.245Z,10.24
2022-11-10T14:10:04.038Z,10.23
2022-11-10T14:13:04.118Z,10.20
2022-11-10T14:15:54.515Z,10.15
2022-11-10T14:18:48.928Z,10.14
2022-11-10T14:22:00.039Z,10.09
2022-11-10T14:24:54.838Z,10.04
2022-11-10T14:27:44.885Z,10.00
2022-11-10T14:30:33.981Z,9.97
2022-11-10T14:33:22.619Z,9.91
2022-11-10T14:36:14.506Z,9.84
2022-11-10T14:39:17.603Z,9.79
2022-11-10T14:42:06.119Z,9.75
2022-11-10T14:45:18.825Z,9.71
2022-11-10T14:48:19.294Z,9.67
2022-11-10T14:51:13.829Z,9.61
2022-11-10T14:54:03.039Z,9.56
2022-11-10T14:57:06.966Z,9.51
2022-11-10T14:59:54.475Z,9.46
2022-11-10T15:02:42.115Z,9.40
2022-11-10T15:05:32.212Z,9.34
2022-11-10T15:08:20.677Z,9.29
2022-11-10T15:11:47.586Z,9.23
2022-11-10T15:14:38.873Z,9.19
2022-11-10T15:17:53.551Z,9.16
2022-11-10T15:20:41.968Z,9.12
2022-11-10T15:23:36.785Z,9.07
2022-11-10T15:26:27.984Z,9.02
2022-11-10T15:29:30.683Z,8.97
2022-11-10T15:32:22.173Z,8.94
2022-11-10T15:35:29.179Z,8.91
2022-11-10T15:38:24.094Z,8.89
2022-11-10T15:41:27.426Z,8.88
2022-11-10T15:44:21.078Z,8.83
2022-11-10T15:47:22.380Z,8.79
2022-11-10T15:50:12.645Z,8.76
2022-11-10T15:53:00.471Z,8.72
2022-11-10T15:55:48.931Z,8.68
2022-11-10T15:58:36.614Z,8.64
2022-11-10T16:01:24.819Z,8.62
2022-11-10T16:04:13.604Z,8.59
2022-11-10T16:07:01.069Z,8.55
2022-11-10T16:10:02.349Z,8.51
2022-11-10T16:12:49.871Z,8.48
2022-11-10T16:15:41.875Z,8.44
2022-11-10T16:18:30.738Z,8.39
2022-11-10T16:21:24.129Z,8.35
2022-11-10T16:24:11.662Z,8.32
2022-11-10T16:26:59.693Z,8.28
2022-11-10T16:30:01.334Z,8.26
2022-11-10T16:32:48.771Z,8.24
2022-11-10T16:35:36.806Z,8.22
2022-11-10T16:38:29.970Z,8.19
2022-11-10T16:41:17.792Z,8.16
2022-11-10T16:44:15.841Z,8.15
2022-11-10T16:47:02.991Z,8.12
2022-11-10T16:49:51.273Z,8.08
2022-11-10T16:52:39.892Z,8.04
2022-11-10T16:55:27.833Z,7.99
2022-11-10T16:58:15.339Z,7.96
2022-11-10T17:01:03.978Z,7.93
2022-11-10T17:03:55.043Z,7.90
2022-11-10T17:06:43.718Z,7.87
2022-11-10T17:09:32.447Z,7.83
2022-11-10T17:12:20.282Z,7.80
2022-11-10T17:15:21.799Z,7.76
2022-11-10T17:18:14.671Z,7.73
2022-11-10T17:21:03.970Z,7.69
2022-11-10T17:23:51.547Z,7.66
2022-11-10T17:26:39.460Z,7.62
2022-11-10T17:29:29.392Z,7.59
2022-11-10T17:32:21.255Z,7.55
2022-11-10T17:35:12.616Z,7.50
2022-11-10T17:38:01.089Z,7.47
2022-11-10T17:40:48.854Z,7.44
2022-11-10T17:43:36.449Z,7.43
2022-11-10T17:46:24.016Z,7.43
2022-11-10T17:49:11.984Z,7.43
2022-11-10T17:52:01.033Z,7.42
2022-11-10T17:54:48.531Z,7.39
2022-11-10T17:57:50.022Z,7.37
2022-11-10T18:00:37.500Z,7.34
2022-11-10T18:03:25.532Z,7.32
2022-11-10T18:06:19.245Z,7.31
2022-11-10T18:09:06.945Z,7.30
2022-11-10T18:11:54.445Z,7.28
2022-11-10T18:14:41.944Z,7.26
2022-11-10T18:17:30.097Z,7.24
2022-11-10T18:20:17.934Z,7.21
2022-11-10T18:23:07.906Z,7.19
2022-11-10T18:26:11.831Z,7.16
2022-11-10T18:28:59.459Z,7.14
2022-11-10T18:31:47.467Z,7.12
2022-11-10T18:34:35.712Z,7.10
2022-11-10T18:37:23.894Z,7.07
2022-11-10T18:40:12.419Z,7.03
2022-11-10T18:43:13.586Z,6.97
2022-11-10T18:46:01.741Z,6.93
2022-11-10T18:48:49.533Z,6.90
2022-11-10T18:51:37.626Z,6.85
2022-11-10T18:54:26.190Z,6.82
2022-11-10T18:57:16.810Z,6.81
2022-11-10T19:00:07.215Z,6.78
2022-11-10T19:02:56.906Z,6.74
2022-11-10T19:05:44.495Z,6.69
2022-11-10T19:08:32.169Z,6.65
2022-11-10T19:11:34.715Z,6.62
2022-11-10T19:14:22.504Z,6.60
2022-11-10T19:17:10.573Z,6.59
2022-11-10T19:19:58.204Z,6.57
2022-11-10T19:22:45.940Z,6.54
2022-11-10T19:25:33.815Z,6.51
2022-11-10T19:28:21.553Z,6.48
2022-11-10T19:31:14.956Z,6.45
2022-11-10T19:34:02.465Z,6.42
2022-11-10T19:36:50.057Z,6.40
2022-11-10T19:39:37.773Z,6.40
2022-11-10T19:42:38.503Z,6.39
2022-11-10T19:45:25.508Z,6.38
2022-11-10T19:48:12.786Z,6.36
2022-11-10T19:51:02.415Z,6.35
2022-11-10T19:53:58.343Z,6.30
2022-11-10T19:56:45.993Z,6.26
2022-11-10T19:59:33.597Z,6.26
2022-11-10T20:02:34.787Z,6.25
2022-11-10T20:05:22.345Z,6.26
2022-11-10T20:08:12.138Z,6.26
2022-11-10T20:11:27.303Z,6.26
2022-11-10T20:14:15.047Z,6.26
2022-11-10T20:17:02.824Z,6.24
2022-11-10T20:19:50.694Z,6.22
2022-11-10T20:22:37.732Z,6.22
2022-11-10T20:25:25.079Z,6.20
2022-11-10T20:28:14.584Z,6.19
2022-11-10T20:31:04.188Z,6.17
2022-11-10T20:33:53.636Z,6.15
2022-11-10T20:36:41.671Z,6.13
2022-11-10T20:39:29.363Z,6.11
2022-11-10T20:42:16.760Z,6.10
2022-11-10T20:45:17.803Z,6.09
2022-11-10T20:48:18.922Z,6.08
2022-11-10T20:51:20.607Z,6.08
2022-11-10T20:54:21.585Z,6.08
2022-11-10T20:57:23.101Z,6.07
2022-11-10T21:00:11.052Z,6.06
2022-11-10T21:02:58.898Z,6.04
2022-11-10T21:05:46.584Z,6.02
2022-11-10T21:08:34.593Z,6.01
2022-11-10T21:11:40.335Z,6.00
2022-11-10T21:14:41.285Z,6.01
2022-11-10T21:17:49.711Z,6.00
2022-11-10T21:20:58.077Z,5.99
2022-11-10T21:23:57.691Z,5.97
2022-11-10T21:27:09.444Z,5.97
2022-11-10T21:30:22.825Z,5.96
2022-11-10T21:33:10.911Z,5.95
2022-11-10T21:36:06.144Z,5.96
2022-11-10T21:38:54.172Z,5.98
2022-11-10T21:42:51.261Z,5.99
2022-11-10T21:46:24.640Z,5.99
2022-11-10T21:49:13.448Z,5.97
2022-11-10T21:52:14.790Z,5.95
2022-11-10T21:55:02.825Z,5.94
2022-11-10T21:57:58.240Z,5.95
2022-11-10T22:00:46.105Z,5.95
2022-11-10T22:03:35.857Z,5.96
2022-11-10T22:06:23.460Z,5.95
2022-11-10T22:09:11.164Z,5.94
2022-11-10T22:12:17.473Z,5.94
2022-11-10T22:15:25.071Z,5.94
2022-11-10T22:18:34.149Z,5.93
2022-11-10T22:21:22.373Z,5.94
2022-11-10T22:24:28.075Z,5.92
2022-11-10T22:27:16.070Z,5.92
2022-11-10T22:30:04.410Z,5.91
2022-11-10T22:32:52.482Z,5.89
2022-11-10T22:35:45.672Z,5.86
2022-11-10T22:38:39.212Z,5.86
2022-11-10T22:41:45.417Z,5.86
2022-11-10T22:44:33.406Z,5.86
2022-11-10T22:47:21.188Z,5.85
2022-11-10T22:50:09.098Z,5.84
2022-11-10T22:52:58.124Z,5.82
2022-11-10T22:55:45.866Z,5.82
2022-11-10T22:58:33.614Z,5.81
2022-11-10T23:01:21.815Z,5.82
2022-11-10T23:04:22.971Z,5.82
2022-11-10T23:07:10.738Z,5.82
2022-11-10T23:09:58.756Z,5.79
2022-11-10T23:12:46.815Z,5.78
2022-11-10T23:15:34.979Z,5.78
2022-11-10T23:18:23.369Z,5.76
2022-11-10T23:21:16.126Z,5.77
2022-11-10T23:24:04.369Z,5.77
2022-11-10T23:27:05.719Z,5.77
2022-11-10T23:29:53.116Z,5.77
2022-11-10T23:32:40.723Z,5.78
2022-11-10T23:35:28.522Z,5.78
2022-11-10T23:38:15.993Z,5.79
2022-11-10T23:41:05.539Z,5.79
2022-11-10T23:43:54.636Z,5.79
2022-11-10T23:46:42.100Z,5.80
2022-11-10T23:49:29.541Z,5.81
2022-11-10T23:52:17.001Z,5.80
2022-11-10T23:55:04.937Z,5.80
2022-11-10T23:57:52.799Z,5.79
